createdAt,value
2017-10-25T00:00:52.037Z,85.60
2017-10-25T00:03:19.584Z,85.50
2017-10-25T00:05:47.165Z,85.60
2017-10-25T00:08:14.716Z,85.30
2017-10-25T00:10:42.258Z,85.10
2017-10-25T00:13:09.887Z,85.10
2017-10-25T00:15:37.389Z,85.00
2017-10-25T00:18:04.974Z,85.10
2017-10-25T00:20:33.283Z,85.20
2017-10-25T00:23:00.822Z,85.10
2017-10-25T00:25:28.550Z,85.10
2017-10-25T00:27:56.219Z,85.00
2017-10-25T00:30:23.801Z,84.80
2017-10-25T00:32:51.353Z,84.80
2017-10-25T00:35:18.895Z,84.80
2017-10-25T00:37:47.986Z,84.60
2017-10-25T00:40:15.568Z,84.60
2017-10-25T00:42:43.244Z,84.70
2017-10-25T00:45:11.552Z,85.30
2017-10-25T00:47:39.089Z,84.70
2017-10-25T00:50:06.694Z,84.70
2017-10-25T00:52:34.238Z,84.70
2017-10-25T00:55:02.112Z,84.50
2017-10-25T00:57:29.637Z,84.60
2017-10-25T00:59:57.173Z,84.50
2017-10-25T01:02:24.757Z,84.50
2017-10-25T01:04:52.599Z,84.20
2017-10-25T01:07:20.957Z,84.10
2017-10-25T01:09:48.725Z,84.10
2017-10-25T01:12:16.421Z,84.00
2017-10-25T01:14:44.764Z,84.20
2017-10-25T01:17:12.307Z,84.20
2017-10-25T01:19:40.763Z,83.90
2017-10-25T01:22:08.301Z,84.00
2017-10-25T01:24:35.839Z,84.10
2017-10-25T01:27:03.418Z,83.90
2017-10-25T01:29:31.726Z,83.90
2017-10-25T01:31:59.710Z,83.90
2017-10-25T01:34:27.257Z,84.00
2017-10-25T01:36:54.818Z,84.00
2017-10-25T01:39:22.413Z,84.00
2017-10-25T01:41:49.958Z,84.10
2017-10-25T01:44:17.815Z,84.30
2017-10-25T01:46:45.521Z,84.50
2017-10-25T01:49:13.834Z,84.90
2017-10-25T01:51:41.413Z,84.90
2017-10-25T01:54:09.260Z,85.10
2017-10-25T01:56:36.886Z,85.20
2017-10-25T01:59:04.433Z,85.80
2017-10-25T02:01:32.736Z,85.90
2017-10-25T02:04:00.329Z,85.70
2017-10-25T02:06:27.886Z,85.80
2017-10-25T02:08:55.472Z,86.40
2017-10-25T02:11:23.023Z,87.10
2017-10-25T02:13:50.561Z,87.60
2017-10-25T02:16:18.136Z,87.70
2017-10-25T02:18:45.774Z,88.00
2017-10-25T02:21:13.369Z,87.90
2017-10-25T02:23:40.914Z,88.20
2017-10-25T02:26:08.447Z,87.90
2017-10-25T02:28:36.022Z,88.20
2017-10-25T02:31:03.559Z,88.40
2017-10-25T02:33:31.153Z,88.40
2017-10-25T02:35:58.699Z,88.20
2017-10-25T02:38:27.074Z,88.40
2017-10-25T02:40:54.671Z,88.40
2017-10-25T02:43:22.230Z,88.20
2017-10-25T02:45:51.823Z,88.30
2017-10-25T02:48:19.353Z,88.20
2017-10-25T02:50:46.907Z,88.40
2017-10-25T02:53:14.492Z,88.20
2017-10-25T02:55:42.058Z,88.20
2017-10-25T02:58:10.124Z,88.20
2017-10-25T03:00:37.669Z,88.20
2017-10-25T03:03:05.235Z,88.00
2017-10-25T03:05:32.817Z,88.10
2017-10-25T03:08:01.884Z,88.10
2017-10-25T03:10:29.858Z,88.10
2017-10-25T03:12:57.593Z,88.00
2017-10-25T03:15:25.128Z,87.90
2017-10-25T03:17:52.704Z,87.90
2017-10-25T03:20:20.269Z,88.10
2017-10-25T03:22:47.862Z,88.20
2017-10-25T03:25:15.402Z,88.20
2017-10-25T03:27:43.473Z,88.30
2017-10-25T03:30:11.060Z,88.30
2017-10-25T03:32:38.613Z,88.40
2017-10-25T03:35:06.205Z,88.40
2017-10-25T03:37:33.758Z,88.40
2017-10-25T03:40:01.730Z,88.50
2017-10-25T03:42:30.829Z,88.30
2017-10-25T03:44:58.373Z,88.20
2017-10-25T03:47:26.428Z,88.30
2017-10-25T03:49:53.964Z,88.20
2017-10-25T03:52:21.505Z,88.30
2017-10-25T03:54:49.112Z,88.20
2017-10-25T03:57:16.687Z,88.10
2017-10-25T03:59:44.282Z,87.90
2017-10-25T04:02:11.829Z,87.90
2017-10-25T04:07:14.081Z,87.90
2017-10-25T04:09:41.634Z,88.00
2017-10-25T04:12:09.546Z,87.90
2017-10-25T04:14:37.081Z,87.90
2017-10-25T04:17:04.656Z,88.00
2017-10-25T04:19:32.429Z,88.00
2017-10-25T04:22:00.738Z,88.00
2017-10-25T04:24:28.320Z,88.00
2017-10-25T04:26:55.873Z,87.90
2017-10-25T04:29:23.470Z,88.00
2017-10-25T04:31:51.048Z,87.90
2017-10-25T04:34:18.641Z,87.90
2017-10-25T04:36:46.637Z,88.00
2017-10-25T04:39:14.191Z,87.90
2017-10-25T04:41:41.847Z,87.60
2017-10-25T04:44:09.454Z,87.70
2017-10-25T04:46:37.765Z,87.70
2017-10-25T04:49:05.789Z,87.60
2017-10-25T04:51:33.636Z,87.80
2017-10-25T04:54:01.176Z,88.30
2017-10-25T04:56:28.776Z,87.90
2017-10-25T04:58:57.095Z,88.00
2017-10-25T05:01:24.690Z,87.80
2017-10-25T05:03:52.287Z,87.80
2017-10-25T05:06:19.834Z,87.60
2017-10-25T05:08:48.174Z,87.90
2017-10-25T05:11:15.737Z,87.60
2017-10-25T05:13:43.342Z,87.60
2017-10-25T05:16:10.886Z,87.60
2017-10-25T05:18:38.438Z,87.70
2017-10-25T05:21:06.028Z,87.40
2017-10-25T05:23:34.334Z,87.60
2017-10-25T05:26:02.322Z,87.50
2017-10-25T05:28:29.856Z,87.60
2017-10-25T05:30:57.399Z,87.50
2017-10-25T05:33:24.990Z,87.50
2017-10-25T05:35:52.565Z,87.50
2017-10-25T05:38:20.158Z,87.60
2017-10-25T05:40:47.710Z,87.60
2017-10-25T05:43:15.252Z,87.60
2017-10-25T05:45:42.823Z,87.60
2017-10-25T05:48:10.375Z,87.50
2017-10-25T05:50:37.969Z,87.60
2017-10-25T05:53:06.416Z,87.40
2017-10-25T05:55:33.951Z,87.30
2017-10-25T05:58:01.532Z,87.40
2017-10-25T06:00:29.078Z,87.40
2017-10-25T06:02:56.905Z,87.20
2017-10-25T06:05:24.438Z,87.30
2017-10-25T06:07:51.978Z,87.20
2017-10-25T06:10:19.566Z,87.20
2017-10-25T06:12:47.101Z,87.20
2017-10-25T06:15:14.700Z,87.30
2017-10-25T06:17:42.237Z,87.30
2017-10-25T06:20:10.542Z,87.10
2017-10-25T06:22:38.125Z,87.20
2017-10-25T06:25:05.726Z,87.00
2017-10-25T06:27:33.347Z,87.00
2017-10-25T06:30:00.926Z,87.10
2017-10-25T06:32:28.439Z,86.90
2017-10-25T06:34:56.033Z,86.80
2017-10-25T06:37:23.581Z,86.70
2017-10-25T06:39:51.186Z,86.70
2017-10-25T06:42:19.497Z,86.80
2017-10-25T06:44:47.040Z,86.80
2017-10-25T06:47:15.165Z,86.70
2017-10-25T06:49:42.713Z,86.40
2017-10-25T06:52:10.317Z,86.60
2017-10-25T06:54:38.614Z,86.40
2017-10-25T06:57:06.177Z,86.40
2017-10-25T06:59:33.777Z,86.40
2017-10-25T07:02:01.330Z,86.40
2017-10-25T07:04:28.937Z,86.40
2017-10-25T07:06:56.585Z,86.50
2017-10-25T07:09:24.134Z,86.50
2017-10-25T07:11:51.814Z,86.50
2017-10-25T07:14:20.130Z,86.50
2017-10-25T07:16:48.119Z,86.40
2017-10-25T07:19:15.733Z,86.50
2017-10-25T07:21:43.290Z,86.60
2017-10-25T07:24:11.636Z,86.70
2017-10-25T07:26:39.333Z,86.60
2017-10-25T07:29:06.929Z,87.20
2017-10-25T07:31:34.479Z,86.60
2017-10-25T07:34:02.025Z,86.50
2017-10-25T07:36:29.617Z,86.40
2017-10-25T07:38:57.187Z,86.30
2017-10-25T07:41:24.776Z,86.20
2017-10-25T07:43:53.094Z,86.30
2017-10-25T07:46:20.654Z,86.00
2017-10-25T07:48:48.247Z,86.00
2017-10-25T07:51:15.818Z,85.90
2017-10-25T07:53:43.421Z,86.00
2017-10-25T07:56:10.954Z,86.50
2017-10-25T07:58:39.254Z,85.80
2017-10-25T08:01:06.830Z,85.80
2017-10-25T08:03:34.383Z,85.80
2017-10-25T08:06:01.980Z,85.70
2017-10-25T08:08:29.538Z,85.70
2017-10-25T08:10:57.096Z,85.70
2017-10-25T08:13:24.696Z,85.80
2017-10-25T08:15:52.257Z,85.70
2017-10-25T08:18:20.022Z,85.60
2017-10-25T08:20:48.600Z,85.30
2017-10-25T08:23:16.138Z,85.30
2017-10-25T08:25:43.733Z,85.30
2017-10-25T08:28:11.284Z,85.20
2017-10-25T08:30:39.634Z,85.10
2017-10-25T08:33:07.950Z,84.70
2017-10-25T08:35:35.526Z,84.90
2017-10-25T08:38:03.103Z,84.90
2017-10-25T08:40:30.659Z,84.90
2017-10-25T08:42:58.266Z,84.70
2017-10-25T08:45:26.569Z,84.50
2017-10-25T08:47:54.112Z,84.40
2017-10-25T08:50:21.691Z,84.30
2017-10-25T08:52:49.236Z,84.20
2017-10-25T08:55:16.870Z,84.10
2017-10-25T08:57:44.427Z,83.90
2017-10-25T09:00:11.960Z,83.80
2017-10-25T09:02:39.725Z,83.30
2017-10-25T09:05:07.264Z,83.40
2017-10-25T09:07:34.847Z,83.50
2017-10-25T09:10:02.398Z,83.50
2017-10-25T09:12:29.942Z,83.50
2017-10-25T09:14:57.520Z,83.00
2017-10-25T09:17:25.062Z,82.60
2017-10-25T09:19:52.748Z,82.50
2017-10-25T09:22:21.366Z,82.30
2017-10-25T09:24:49.080Z,82.10
2017-10-25T09:27:16.661Z,82.10
2017-10-25T09:29:44.202Z,82.10
2017-10-25T09:32:12.282Z,82.30
2017-10-25T09:34:39.833Z,82.30
2017-10-25T09:37:07.398Z,82.50
2017-10-25T09:39:34.993Z,82.50
2017-10-25T09:42:02.548Z,82.60
2017-10-25T09:44:30.261Z,82.10
2017-10-25T09:46:57.820Z,82.00
2017-10-25T09:49:25.365Z,81.50
2017-10-25T09:51:52.953Z,81.10
2017-10-25T09:54:20.531Z,80.80
2017-10-25T09:56:48.134Z,80.60
2017-10-25T09:59:16.454Z,80.20
2017-10-25T10:01:44.021Z,80.10
2017-10-25T10:04:11.588Z,80.00
2017-10-25T10:06:39.125Z,80.00
2017-10-25T10:09:06.750Z,80.00
2017-10-25T10:11:34.486Z,80.00
2017-10-25T10:14:02.795Z,80.10
2017-10-25T10:16:30.443Z,80.10
2017-10-25T10:18:58.769Z,79.40
2017-10-25T10:21:26.635Z,79.40
2017-10-25T10:23:54.171Z,79.20
2017-10-25T10:26:21.742Z,79.70
2017-10-25T10:28:49.322Z,79.10
2017-10-25T10:31:16.918Z,79.40
2017-10-25T10:33:44.501Z,79.00
2017-10-25T10:36:12.155Z,78.90
2017-10-25T10:38:40.670Z,78.80
2017-10-25T10:41:08.255Z,78.80
2017-10-25T10:43:35.970Z,78.90
2017-10-25T10:46:03.602Z,78.90
2017-10-25T10:48:32.026Z,78.50
2017-10-25T10:50:59.577Z,78.50
2017-10-25T10:53:27.178Z,79.10
2017-10-25T10:55:54.755Z,78.50
2017-10-25T10:58:22.344Z,78.20
2017-10-25T11:00:50.653Z,78.90
2017-10-25T11:03:18.202Z,78.40
2017-10-25T11:05:46.042Z,78.60
2017-10-25T11:08:13.596Z,78.60
2017-10-25T11:10:41.946Z,78.50
2017-10-25T11:13:09.488Z,78.50
2017-10-25T11:15:37.055Z,78.70
2017-10-25T11:18:04.668Z,78.80
2017-10-25T11:20:32.267Z,78.50
2017-10-25T11:23:00.122Z,78.90
2017-10-25T11:25:27.693Z,78.60
2017-10-25T11:27:55.527Z,78.70
2017-10-25T11:30:23.153Z,78.70
2017-10-25T11:32:51.583Z,78.90
2017-10-25T11:35:19.793Z,79.20
2017-10-25T11:38:01.119Z,79.90
2017-10-25T11:40:29.954Z,79.40
2017-10-25T11:42:58.624Z,79.30
2017-10-25T11:45:26.189Z,78.90
2017-10-25T11:47:53.804Z,78.90
2017-10-25T11:50:22.125Z,78.50
2017-10-25T11:52:49.720Z,78.50
2017-10-25T11:55:18.216Z,78.00
2017-10-25T11:57:46.530Z,78.10
2017-10-25T12:00:14.110Z,78.10
2017-10-25T12:02:41.662Z,78.30
2017-10-25T12:05:09.265Z,77.90
2017-10-25T12:07:37.183Z,77.40
2017-10-25T12:10:04.999Z,76.90
2017-10-25T12:12:32.650Z,77.30
2017-10-25T12:15:01.362Z,77.00
2017-10-25T12:17:29.452Z,76.50
2017-10-25T12:19:56.977Z,76.40
2017-10-25T12:22:24.533Z,76.40
2017-10-25T12:24:52.758Z,76.20
2017-10-25T12:27:22.197Z,76.20
2017-10-25T12:29:50.156Z,76.50
2017-10-25T12:32:17.705Z,76.50
2017-10-25T12:34:45.257Z,77.00
2017-10-25T12:37:12.861Z,77.30
2017-10-25T12:39:40.406Z,77.40
2017-10-25T12:42:08.010Z,77.60
2017-10-25T12:44:35.574Z,77.90
2017-10-25T12:47:03.118Z,77.60
2017-10-25T12:49:30.884Z,78.10
2017-10-25T12:51:58.717Z,77.80
2017-10-25T12:54:27.082Z,78.00
2017-10-25T12:56:54.644Z,78.00
2017-10-25T12:59:22.207Z,77.80
2017-10-25T13:01:49.946Z,77.60
2017-10-25T13:04:18.783Z,77.80
2017-10-25T13:06:46.475Z,77.90
2017-10-25T13:09:14.017Z,77.70
2017-10-25T13:11:54.562Z,78.20
2017-10-25T13:14:38.543Z,77.50
2017-10-25T13:17:09.392Z,77.40
2017-10-25T13:19:36.941Z,77.40
2017-10-25T13:22:04.482Z,77.90
2017-10-25T13:24:32.642Z,77.90
2017-10-25T13:27:11.168Z,78.20
2017-10-25T13:29:39.329Z,78.10
2017-10-25T13:32:06.910Z,78.10
2017-10-25T13:34:34.466Z,77.80
2017-10-25T13:37:02.073Z,77.90
2017-10-25T13:39:29.633Z,77.80
2017-10-25T13:41:57.230Z,77.90
2017-10-25T13:44:24.814Z,77.80
2017-10-25T13:46:52.371Z,77.80
2017-10-25T13:49:19.996Z,77.70
2017-10-25T13:51:47.570Z,77.70
2017-10-25T13:54:16.217Z,77.10
2017-10-25T13:56:43.968Z,77.10
2017-10-25T13:59:11.524Z,76.90
2017-10-25T14:01:39.117Z,76.70
2017-10-25T14:04:06.661Z,76.90
2017-10-25T14:06:34.261Z,76.50
2017-10-25T14:09:01.836Z,76.40
2017-10-25T14:11:29.486Z,76.40
2017-10-25T14:13:58.137Z,77.00
2017-10-25T14:16:25.694Z,77.00
2017-10-25T14:18:53.317Z,76.70
2017-10-25T14:21:20.870Z,76.90
2017-10-25T14:23:48.459Z,77.00
2017-10-25T14:26:28.117Z,76.90
2017-10-25T14:28:55.777Z,77.10
2017-10-25T14:31:24.391Z,76.90
2017-10-25T14:33:53.110Z,77.60
2017-10-25T14:36:20.748Z,77.10
2017-10-25T14:38:49.125Z,76.90
2017-10-25T14:41:16.663Z,76.80
2017-10-25T14:43:45.026Z,77.20
2017-10-25T14:46:12.588Z,77.10
2017-10-25T14:48:40.215Z,77.30
2017-10-25T14:51:07.883Z,77.30
2017-10-25T14:53:35.442Z,77.70
2017-10-25T14:56:03.055Z,77.60
2017-10-25T14:58:32.215Z,78.60
2017-10-25T15:00:59.874Z,78.10
2017-10-25T15:03:27.732Z,78.40
2017-10-25T15:05:55.354Z,78.20
2017-10-25T15:08:23.829Z,78.60
2017-10-25T15:10:52.182Z,78.50
2017-10-25T15:13:19.926Z,78.50
2017-10-25T15:15:47.484Z,78.70
2017-10-25T15:18:15.023Z,78.80
2017-10-25T15:20:42.623Z,78.70
2017-10-25T15:23:10.193Z,78.80
2017-10-25T15:25:38.597Z,79.00
2017-10-25T15:28:06.154Z,79.00
2017-10-25T15:30:34.466Z,79.30
2017-10-25T15:33:02.070Z,79.30
2017-10-25T15:35:30.475Z,79.40
2017-10-25T15:37:58.091Z,79.40
2017-10-25T15:40:25.677Z,79.40
2017-10-25T15:42:53.995Z,79.40
2017-10-25T15:45:22.208Z,79.30
2017-10-25T15:47:49.775Z,79.30
2017-10-25T15:50:18.037Z,79.30
2017-10-25T15:52:45.612Z,79.30
2017-10-25T15:55:13.246Z,79.30
2017-10-25T15:57:40.864Z,79.30
2017-10-25T16:00:08.705Z,79.20
2017-10-25T16:02:36.695Z,79.20
2017-10-25T16:05:04.427Z,79.20
2017-10-25T16:07:33.053Z,79.80
2017-10-25T16:10:00.731Z,79.30
2017-10-25T16:12:28.489Z,79.20
2017-10-25T16:14:56.402Z,79.20
2017-10-25T16:17:24.028Z,79.20
2017-10-25T16:19:52.436Z,79.30
2017-10-25T16:22:20.206Z,79.60
2017-10-25T16:24:47.769Z,79.70
2017-10-25T16:27:15.714Z,79.20
2017-10-25T16:29:43.265Z,79.20
2017-10-25T16:32:11.538Z,79.20
2017-10-25T16:34:39.176Z,79.20
2017-10-25T16:37:06.709Z,79.20
2017-10-25T16:39:34.309Z,79.20
2017-10-25T16:42:02.203Z,79.20
2017-10-25T16:44:29.825Z,79.20
2017-10-25T16:46:57.524Z,79.20
2017-10-25T16:49:25.547Z,79.20
2017-10-25T16:51:53.924Z,79.20
2017-10-25T16:54:21.697Z,79.20
2017-10-25T16:56:49.246Z,79.20
2017-10-25T16:59:16.845Z,79.20
2017-10-25T17:01:44.401Z,79.20
2017-10-25T17:04:11.993Z,79.20
2017-10-25T17:06:42.003Z,79.20
2017-10-25T17:09:09.566Z,79.20
2017-10-25T17:11:37.333Z,79.20
2017-10-25T17:14:04.888Z,79.20
2017-10-25T17:16:32.909Z,79.20
2017-10-25T17:19:00.468Z,78.90
2017-10-25T17:21:28.071Z,79.00
2017-10-25T17:23:55.668Z,78.50
2017-10-25T17:26:24.099Z,78.50
2017-10-25T17:28:52.186Z,78.50
2017-10-25T17:31:19.742Z,78.40
2017-10-25T17:33:47.318Z,78.10
2017-10-25T17:36:14.988Z,77.80
2017-10-25T17:38:42.530Z,77.80
2017-10-25T17:41:10.134Z,77.80
2017-10-25T17:43:37.699Z,78.10
2017-10-25T17:46:06.139Z,78.20
2017-10-25T17:48:34.262Z,78.20
2017-10-25T17:51:02.001Z,78.50
2017-10-25T17:53:30.300Z,78.20
2017-10-25T17:55:57.969Z,78.20
2017-10-25T17:58:25.679Z,78.50
2017-10-25T18:00:53.476Z,78.70
2017-10-25T18:03:21.284Z,78.70
2017-10-25T18:05:49.163Z,78.80
2017-10-25T18:08:17.484Z,79.10
2017-10-25T18:10:45.141Z,78.90
2017-10-25T18:13:12.772Z,78.80
2017-10-25T18:15:40.412Z,78.90
2017-10-25T18:18:08.071Z,78.50
2017-10-25T18:20:35.639Z,78.40
2017-10-25T18:23:03.189Z,78.10
2017-10-25T18:25:30.796Z,77.70
2017-10-25T18:27:59.147Z,77.50
2017-10-25T18:30:26.778Z,77.50
2017-10-25T18:32:54.382Z,78.20
2017-10-25T18:35:21.950Z,77.40
2017-10-25T18:37:49.571Z,77.40
2017-10-25T18:40:17.674Z,77.30
2017-10-25T18:42:45.294Z,77.30
2017-10-25T18:45:13.715Z,77.50
2017-10-25T18:47:41.280Z,77.70
2017-10-25T18:50:08.905Z,77.80
2017-10-25T18:52:36.649Z,77.70
2017-10-25T18:55:04.254Z,77.60
2017-10-25T18:57:31.851Z,77.60
2017-10-25T18:59:59.416Z,77.90
2017-10-25T19:02:27.011Z,78.00
2017-10-25T19:04:54.580Z,78.20
2017-10-25T19:07:25.827Z,78.30
2017-10-25T19:09:53.561Z,78.30
2017-10-25T19:12:21.688Z,78.60
2017-10-25T19:14:49.287Z,79.00
2017-10-25T19:17:16.823Z,78.90
2017-10-25T19:19:44.441Z,78.80
2017-10-25T19:22:12.288Z,78.90
2017-10-25T19:24:41.707Z,79.00
2017-10-25T19:27:09.447Z,78.90
2017-10-25T19:29:37.019Z,78.90
2017-10-25T19:32:06.538Z,78.80
2017-10-25T19:34:34.170Z,78.80
2017-10-25T19:37:01.703Z,79.40
2017-10-25T19:39:29.304Z,78.80
2017-10-25T19:41:56.869Z,78.80
2017-10-25T19:44:25.125Z,78.80
2017-10-25T19:46:52.684Z,79.50
2017-10-25T19:49:20.438Z,79.00
2017-10-25T19:51:48.056Z,79.20
2017-10-25T19:54:15.597Z,79.30
2017-10-25T19:56:43.253Z,78.70
2017-10-25T19:59:10.821Z,79.40
2017-10-25T20:01:38.407Z,79.10
2017-10-25T20:04:06.009Z,79.30
2017-10-25T20:06:33.628Z,79.40
2017-10-25T20:09:02.398Z,79.60
2017-10-25T20:11:30.539Z,79.60
2017-10-25T20:13:58.124Z,79.50
2017-10-25T20:16:25.755Z,79.40
2017-10-25T20:18:53.318Z,79.60
2017-10-25T20:21:20.903Z,79.50
2017-10-25T20:23:48.460Z,79.50
2017-10-25T20:28:49.938Z,79.50
2017-10-25T20:31:17.497Z,79.50
2017-10-25T20:33:45.113Z,79.50
2017-10-25T20:36:12.718Z,79.30
2017-10-25T20:38:40.270Z,79.50
2017-10-25T20:41:07.918Z,79.50
2017-10-25T20:43:35.606Z,79.60
2017-10-25T20:46:03.211Z,79.40
2017-10-25T20:48:31.760Z,79.50
2017-10-25T20:50:59.370Z,79.60
2017-10-25T20:53:26.973Z,79.40
2017-10-25T20:55:54.508Z,79.50
2017-10-25T20:58:22.112Z,79.60
2017-10-25T21:00:50.434Z,79.60
2017-10-25T21:03:18.994Z,79.50
2017-10-25T21:05:46.718Z,79.40
2017-10-25T21:08:15.226Z,79.90
2017-10-25T21:10:43.814Z,79.30
2017-10-25T21:13:11.585Z,79.30
2017-10-25T21:15:39.957Z,79.30
2017-10-25T21:18:07.701Z,79.30
2017-10-25T21:20:36.342Z,81.20
2017-10-25T21:23:04.619Z,81.10
2017-10-25T21:25:33.436Z,81.20
2017-10-25T21:28:01.709Z,81.20
2017-10-25T21:30:30.549Z,81.10
2017-10-25T21:32:59.108Z,80.70
2017-10-25T21:35:29.230Z,80.60
2017-10-25T21:37:58.362Z,80.70
2017-10-25T21:40:29.100Z,80.60
2017-10-25T21:42:56.731Z,80.60
2017-10-25T21:45:25.294Z,80.80
2017-10-25T21:47:53.064Z,80.80
2017-10-25T21:50:21.508Z,80.90
2017-10-25T21:52:49.175Z,80.80
2017-10-25T21:55:17.022Z,81.00
2017-10-25T21:57:45.419Z,81.10
2017-10-25T22:00:13.408Z,81.10
2017-10-25T22:02:42.598Z,81.40
2017-10-25T22:05:10.209Z,81.30
2017-10-25T22:07:38.099Z,81.40
2017-10-25T22:10:05.944Z,81.40
2017-10-25T22:12:33.600Z,81.40
2017-10-25T22:15:01.524Z,81.40
2017-10-25T22:17:29.186Z,81.30
2017-10-25T22:19:57.567Z,81.30
2017-10-25T22:22:26.070Z,81.40
2017-10-25T22:24:54.836Z,81.50
2017-10-25T22:27:22.562Z,81.50
2017-10-25T22:29:50.317Z,81.60
2017-10-25T22:32:19.150Z,81.40
2017-10-25T22:34:47.984Z,81.20
2017-10-25T22:37:15.898Z,81.40
2017-10-25T22:39:44.241Z,81.40
2017-10-25T22:42:12.153Z,81.40
2017-10-25T22:44:39.995Z,81.60
2017-10-25T22:47:07.821Z,81.70
2017-10-25T22:49:36.751Z,81.80
2017-10-25T22:52:04.638Z,81.70
2017-10-25T22:54:33.074Z,81.80
2017-10-25T22:57:00.937Z,82.00
2017-10-25T22:59:30.647Z,82.10
2017-10-25T23:01:58.290Z,82.20
2017-10-25T23:04:25.834Z,82.10
2017-10-25T23:06:53.373Z,81.90
2017-10-25T23:09:21.021Z,82.20
2017-10-25T23:11:48.573Z,82.40
2017-10-25T23:14:16.217Z,82.40
2017-10-25T23:16:43.787Z,82.40
2017-10-25T23:19:11.369Z,83.00
2017-10-25T23:21:38.956Z,82.40
2017-10-25T23:24:07.266Z,82.40
2017-10-25T23:26:34.866Z,82.40
2017-10-25T23:29:02.571Z,82.40
2017-10-25T23:31:30.127Z,82.40
2017-10-25T23:33:57.773Z,82.40
2017-10-25T23:36:25.345Z,82.40
2017-10-25T23:38:52.973Z,82.40
2017-10-25T23:41:20.538Z,82.40
2017-10-25T23:43:48.106Z,82.40
2017-10-25T23:46:15.702Z,82.40
2017-10-25T23:48:43.250Z,82.40
2017-10-25T23:51:10.858Z,82.40
2017-10-25T23:53:38.422Z,82.40
2017-10-25T23:56:05.979Z,82.40
2017-10-25T23:58:33.590Z,82.40
